sensor_id;sensor_type;location;lat;lon;timestamp;P1;durP1;ratioP1;P2;durP2;ratioP2
32505;SDS011;18955;51.224;8.482;2022-09-09T00:00:17;3.13;;;1.08;;
32505;SDS011;18955;51.224;8.482;2022-09-09T00:02:45;4.28;;;1.15;;
32505;SDS011;18955;51.224;8.482;2022-09-09T00:05:43;2.70;;;0.80;;
32505;SDS011;18955;51.224;8.482;2022-09-09T00:08:22;3.90;;;0.80;;
32505;SDS011;18955;51.224;8.482;2022-09-09T00:10:59;2.75;;;0.70;;
32505;SDS011;18955;51.224;8.482;2022-09-09T00:13:48;1.60;;;0.70;;
32505;SDS011;18955;51.224;8.482;2022-09-09T00:16:24;2.53;;;0.80;;
32505;SDS011;18955;51.224;8.482;2022-09-09T00:19:01;4.63;;;1.05;;
32505;SDS011;18955;51.224;8.482;2022-09-09T00:27:36;3.45;;;0.90;;
32505;SDS011;18955;51.224;8.482;2022-09-09T00:32:48;5.85;;;0.93;;
32505;SDS011;18955;51.224;8.482;2022-09-09T00:35:30;8.32;;;0.90;;
32505;SDS011;18955;51.224;8.482;2022-09-09T00:38:06;3.15;;;0.80;;
32505;SDS011;18955;51.224;8.482;2022-09-09T00:43:29;5.85;;;0.80;;
32505;SDS011;18955;51.224;8.482;2022-09-09T00:54:09;3.55;;;0.60;;
32505;SDS011;18955;51.224;8.482;2022-09-09T00:57:25;0.98;;;0.50;;
32505;SDS011;18955;51.224;8.482;2022-09-09T01:05:36;5.50;;;0.90;;
32505;SDS011;18955;51.224;8.482;2022-09-09T01:08:14;2.40;;;1.00;;
32505;SDS011;18955;51.224;8.482;2022-09-09T01:10:52;1.15;;;0.55;;
32505;SDS011;18955;51.224;8.482;2022-09-09T01:13:24;2.38;;;0.88;;
32505;SDS011;18955;51.224;8.482;2022-09-09T01:16:00;3.50;;;1.00;;
32505;SDS011;18955;51.224;8.482;2022-09-09T01:18:43;6.20;;;1.08;;
32505;SDS011;18955;51.224;8.482;2022-09-09T01:27:16;4.40;;;0.75;;
32505;SDS011;18955;51.224;8.482;2022-09-09T01:29:43;2.97;;;0.80;;
32505;SDS011;18955;51.224;8.482;2022-09-09T01:35:06;3.95;;;0.90;;
32505;SDS011;18955;51.224;8.482;2022-09-09T01:37:41;3.08;;;1.00;;
32505;SDS011;18955;51.224;8.482;2022-09-09T01:40:07;2.25;;;1.00;;
32505;SDS011;18955;51.224;8.482;2022-09-09T01:42:36;0.95;;;0.70;;
32505;SDS011;18955;51.224;8.482;2022-09-09T01:45:03;4.63;;;1.00;;
32505;SDS011;18955;51.224;8.482;2022-09-09T01:47:30;2.92;;;0.80;;
32505;SDS011;18955;51.224;8.482;2022-09-09T01:50:04;2.67;;;0.77;;
32505;SDS011;18955;51.224;8.482;2022-09-09T01:52:33;2.78;;;0.93;;
32505;SDS011;18955;51.224;8.482;2022-09-09T01:55:02;4.47;;;0.80;;
32505;SDS011;18955;51.224;8.482;2022-09-09T02:00:36;3.30;;;1.20;;
32505;SDS011;18955;51.224;8.482;2022-09-09T02:03:13;2.05;;;0.70;;
32505;SDS011;18955;51.224;8.482;2022-09-09T02:08:42;3.33;;;0.95;;
32505;SDS011;18955;51.224;8.482;2022-09-09T02:11:19;4.05;;;0.90;;
32505;SDS011;18955;51.224;8.482;2022-09-09T02:14:04;3.83;;;0.65;;
32505;SDS011;18955;51.224;8.482;2022-09-09T02:16:40;4.88;;;0.98;;
32505;SDS011;18955;51.224;8.482;2022-09-09T02:19:25;1.95;;;0.82;;
32505;SDS011;18955;51.224;8.482;2022-09-09T02:22:20;5.97;;;0.80;;
32505;SDS011;18955;51.224;8.482;2022-09-09T02:24:50;5.88;;;1.30;;
32505;SDS011;18955;51.224;8.482;2022-09-09T02:27:24;5.03;;;1.15;;
32505;SDS011;18955;51.224;8.482;2022-09-09T02:29:51;6.63;;;1.10;;
32505;SDS011;18955;51.224;8.482;2022-09-09T02:32:30;10.65;;;1.02;;
32505;SDS011;18955;51.224;8.482;2022-09-09T02:35:01;3.40;;;1.08;;
32505;SDS011;18955;51.224;8.482;2022-09-09T02:37:32;3.50;;;1.05;;
32505;SDS011;18955;51.224;8.482;2022-09-09T02:40:05;2.97;;;1.05;;
32505;SDS011;18955;51.224;8.482;2022-09-09T02:42:41;4.00;;;0.88;;
32505;SDS011;18955;51.224;8.482;2022-09-09T02:45:09;2.00;;;0.88;;
32505;SDS011;18955;51.224;8.482;2022-09-09T02:47:39;2.28;;;1.05;;
32505;SDS011;18955;51.224;8.482;2022-09-09T02:55:41;5.60;;;1.17;;
32505;SDS011;18955;51.224;8.482;2022-09-09T02:58:20;4.55;;;0.80;;
32505;SDS011;18955;51.224;8.482;2022-09-09T03:00:58;3.10;;;1.20;;
32505;SDS011;18955;51.224;8.482;2022-09-09T03:03:27;2.95;;;1.08;;
32505;SDS011;18955;51.224;8.482;2022-09-09T03:05:53;3.22;;;1.27;;
32505;SDS011;18955;51.224;8.482;2022-09-09T03:08:19;4.45;;;1.38;;
32505;SDS011;18955;51.224;8.482;2022-09-09T03:10:47;5.35;;;1.25;;
32505;SDS011;18955;51.224;8.482;2022-09-09T03:13:14;4.82;;;1.00;;
32505;SDS011;18955;51.224;8.482;2022-09-09T03:15:41;3.97;;;1.17;;
32505;SDS011;18955;51.224;8.482;2022-09-09T03:18:12;8.98;;;1.30;;
32505;SDS011;18955;51.224;8.482;2022-09-09T03:20:39;3.42;;;1.23;;
32505;SDS011;18955;51.224;8.482;2022-09-09T03:23:07;7.35;;;2.45;;
32505;SDS011;18955;51.224;8.482;2022-09-09T03:25:33;8.20;;;1.00;;
32505;SDS011;18955;51.224;8.482;2022-09-09T03:28:01;5.80;;;1.10;;
32505;SDS011;18955;51.224;8.482;2022-09-09T03:30:28;4.60;;;1.40;;
32505;SDS011;18955;51.224;8.482;2022-09-09T03:32:55;7.15;;;0.93;;
32505;SDS011;18955;51.224;8.482;2022-09-09T03:35:27;6.78;;;1.42;;
32505;SDS011;18955;51.224;8.482;2022-09-09T03:37:53;4.05;;;1.05;;
32505;SDS011;18955;51.224;8.482;2022-09-09T03:40:20;4.45;;;1.30;;
32505;SDS011;18955;51.224;8.482;2022-09-09T03:42:47;4.68;;;1.25;;
32505;SDS011;18955;51.224;8.482;2022-09-09T03:45:16;10.35;;;1.40;;
32505;SDS011;18955;51.224;8.482;2022-09-09T03:47:42;4.95;;;1.17;;
32505;SDS011;18955;51.224;8.482;2022-09-09T03:50:09;2.92;;;1.08;;
32505;SDS011;18955;51.224;8.482;2022-09-09T03:52:41;5.28;;;1.20;;
32505;SDS011;18955;51.224;8.482;2022-09-09T03:55:14;2.63;;;0.90;;
32505;SDS011;18955;51.224;8.482;2022-09-09T03:57:40;24.60;;;1.48;;
32505;SDS011;18955;51.224;8.482;2022-09-09T04:00:08;7.65;;;1.90;;
32505;SDS011;18955;51.224;8.482;2022-09-09T04:02:49;7.25;;;1.30;;
32505;SDS011;18955;51.224;8.482;2022-09-09T04:05:19;4.45;;;1.40;;
32505;SDS011;18955;51.224;8.482;2022-09-09T04:07:47;2.97;;;1.10;;
32505;SDS011;18955;51.224;8.482;2022-09-09T04:10:13;4.35;;;1.30;;
32505;SDS011;18955;51.224;8.482;2022-09-09T04:12:42;9.65;;;1.40;;
32505;SDS011;18955;51.224;8.482;2022-09-09T04:15:09;14.73;;;2.72;;
32505;SDS011;18955;51.224;8.482;2022-09-09T04:17:38;7.47;;;1.40;;
32505;SDS011;18955;51.224;8.482;2022-09-09T04:20:04;8.52;;;1.27;;
32505;SDS011;18955;51.224;8.482;2022-09-09T04:22:30;12.80;;;1.65;;
32505;SDS011;18955;51.224;8.482;2022-09-09T04:24:58;6.55;;;1.67;;
32505;SDS011;18955;51.224;8.482;2022-09-09T04:27:24;20.45;;;2.20;;
32505;SDS011;18955;51.224;8.482;2022-09-09T04:29:51;7.25;;;1.90;;
32505;SDS011;18955;51.224;8.482;2022-09-09T04:32:17;6.10;;;1.38;;
32505;SDS011;18955;51.224;8.482;2022-09-09T04:34:43;14.40;;;1.83;;
32505;SDS011;18955;51.224;8.482;2022-09-09T04:37:10;11.68;;;1.20;;
32505;SDS011;18955;51.224;8.482;2022-09-09T04:39:37;13.93;;;1.75;;
32505;SDS011;18955;51.224;8.482;2022-09-09T04:42:05;10.10;;;1.95;;
32505;SDS011;18955;51.224;8.482;2022-09-09T04:44:31;9.95;;;1.55;;
32505;SDS011;18955;51.224;8.482;2022-09-09T04:46:58;9.25;;;1.50;;
32505;SDS011;18955;51.224;8.482;2022-09-09T04:49:25;10.13;;;1.70;;
32505;SDS011;18955;51.224;8.482;2022-09-09T04:51:51;13.80;;;1.85;;
32505;SDS011;18955;51.224;8.482;2022-09-09T04:54:18;13.40;;;1.77;;
32505;SDS011;18955;51.224;8.482;2022-09-09T04:56:45;11.88;;;1.42;;
32505;SDS011;18955;51.224;8.482;2022-09-09T04:59:11;8.50;;;1.60;;
32505;SDS011;18955;51.224;8.482;2022-09-09T05:01:45;15.88;;;1.75;;
32505;SDS011;18955;51.224;8.482;2022-09-09T05:04:11;9.10;;;1.70;;
32505;SDS011;18955;51.224;8.482;2022-09-09T05:06:37;8.80;;;1.42;;
32505;SDS011;18955;51.224;8.482;2022-09-09T05:09:04;12.02;;;1.50;;
32505;SDS011;18955;51.224;8.482;2022-09-09T05:11:31;6.65;;;1.20;;
32505;SDS011;18955;51.224;8.482;2022-09-09T05:14:18;3.88;;;1.13;;
32505;SDS011;18955;51.224;8.482;2022-09-09T05:16:45;1.70;;;1.00;;
32505;SDS011;18955;51.224;8.482;2022-09-09T05:19:12;5.35;;;1.25;;
32505;SDS011;18955;51.224;8.482;2022-09-09T05:21:43;2.78;;;1.30;;
32505;SDS011;18955;51.224;8.482;2022-09-09T05:24:10;3.47;;;0.77;;
32505;SDS011;18955;51.224;8.482;2022-09-09T05:26:37;6.78;;;1.20;;
32505;SDS011;18955;51.224;8.482;2022-09-09T05:29:03;12.95;;;1.40;;
32505;SDS011;18955;51.224;8.482;2022-09-09T05:31:30;6.70;;;1.50;;
32505;SDS011;18955;51.224;8.482;2022-09-09T05:33:59;11.75;;;2.08;;
32505;SDS011;18955;51.224;8.482;2022-09-09T05:36:25;7.82;;;1.30;;
32505;SDS011;18955;51.224;8.482;2022-09-09T05:38:55;7.60;;;1.23;;
32505;SDS011;18955;51.224;8.482;2022-09-09T05:41:21;8.90;;;1.40;;
32505;SDS011;18955;51.224;8.482;2022-09-09T05:43:50;10.15;;;1.50;;
32505;SDS011;18955;51.224;8.482;2022-09-09T05:46:18;6.90;;;1.50;;
32505;SDS011;18955;51.224;8.482;2022-09-09T05:48:48;4.18;;;1.00;;
32505;SDS011;18955;51.224;8.482;2022-09-09T05:51:20;13.10;;;2.60;;
32505;SDS011;18955;51.224;8.482;2022-09-09T05:53:49;20.13;;;4.25;;
32505;SDS011;18955;51.224;8.482;2022-09-09T05:56:22;9.00;;;2.47;;
32505;SDS011;18955;51.224;8.482;2022-09-09T05:58:51;9.48;;;2.15;;
32505;SDS011;18955;51.224;8.482;2022-09-09T06:01:24;9.80;;;2.20;;
32505;SDS011;18955;51.224;8.482;2022-09-09T06:03:56;9.65;;;1.38;;
32505;SDS011;18955;51.224;8.482;2022-09-09T06:06:25;13.18;;;1.60;;
32505;SDS011;18955;51.224;8.482;2022-09-09T06:08:56;7.00;;;1.70;;
32505;SDS011;18955;51.224;8.482;2022-09-09T06:11:31;9.10;;;1.50;;
32505;SDS011;18955;51.224;8.482;2022-09-09T06:13:59;3.10;;;1.27;;
32505;SDS011;18955;51.224;8.482;2022-09-09T06:16:28;4.10;;;1.30;;
32505;SDS011;18955;51.224;8.482;2022-09-09T06:18:55;19.90;;;2.97;;
32505;SDS011;18955;51.224;8.482;2022-09-09T06:21:31;13.60;;;1.67;;
32505;SDS011;18955;51.224;8.482;2022-09-09T06:24:02;10.57;;;1.73;;
32505;SDS011;18955;51.224;8.482;2022-09-09T06:26:30;9.38;;;1.73;;
32505;SDS011;18955;51.224;8.482;2022-09-09T06:29:00;4.55;;;1.52;;
32505;SDS011;18955;51.224;8.482;2022-09-09T06:31:29;7.57;;;1.45;;
32505;SDS011;18955;51.224;8.482;2022-09-09T06:34:04;7.63;;;1.27;;
32505;SDS011;18955;51.224;8.482;2022-09-09T06:36:34;4.43;;;1.27;;
32505;SDS011;18955;51.224;8.482;2022-09-09T06:39:03;6.95;;;1.52;;
32505;SDS011;18955;51.224;8.482;2022-09-09T06:41:31;4.88;;;1.30;;
32505;SDS011;18955;51.224;8.482;2022-09-09T06:44:00;5.55;;;1.25;;
32505;SDS011;18955;51.224;8.482;2022-09-09T06:46:37;5.93;;;1.40;;
32505;SDS011;18955;51.224;8.482;2022-09-09T06:49:05;17.13;;;2.00;;
32505;SDS011;18955;51.224;8.482;2022-09-09T06:51:34;14.18;;;1.80;;
32505;SDS011;18955;51.224;8.482;2022-09-09T06:54:03;9.90;;;1.60;;
32505;SDS011;18955;51.224;8.482;2022-09-09T06:56:37;7.55;;;2.08;;
32505;SDS011;18955;51.224;8.482;2022-09-09T06:59:12;7.07;;;1.25;;
32505;SDS011;18955;51.224;8.482;2022-09-09T07:01:40;6.30;;;1.52;;
32505;SDS011;18955;51.224;8.482;2022-09-09T07:04:11;5.15;;;1.13;;
32505;SDS011;18955;51.224;8.482;2022-09-09T07:06:42;10.40;;;1.73;;
32505;SDS011;18955;51.224;8.482;2022-09-09T07:09:16;8.50;;;1.58;;
32505;SDS011;18955;51.224;8.482;2022-09-09T07:11:46;10.80;;;1.67;;
32505;SDS011;18955;51.224;8.482;2022-09-09T07:14:15;14.52;;;2.65;;
32505;SDS011;18955;51.224;8.482;2022-09-09T07:16:45;13.95;;;1.55;;
32505;SDS011;18955;51.224;8.482;2022-09-09T07:19:14;12.00;;;1.70;;
32505;SDS011;18955;51.224;8.482;2022-09-09T07:21:41;6.60;;;1.55;;
32505;SDS011;18955;51.224;8.482;2022-09-09T07:24:10;8.20;;;1.50;;
32505;SDS011;18955;51.224;8.482;2022-09-09T07:26:39;4.20;;;1.30;;
32505;SDS011;18955;51.224;8.482;2022-09-09T07:29:06;4.03;;;1.10;;
32505;SDS011;18955;51.224;8.482;2022-09-09T07:31:35;5.28;;;1.30;;
32505;SDS011;18955;51.224;8.482;2022-09-09T07:34:06;5.32;;;1.30;;
32505;SDS011;18955;51.224;8.482;2022-09-09T07:36:34;5.85;;;1.45;;
32505;SDS011;18955;51.224;8.482;2022-09-09T07:39:05;4.07;;;1.38;;
32505;SDS011;18955;51.224;8.482;2022-09-09T07:41:46;10.98;;;1.60;;
32505;SDS011;18955;51.224;8.482;2022-09-09T07:44:20;8.20;;;1.40;;
32505;SDS011;18955;51.224;8.482;2022-09-09T07:46:52;7.87;;;1.43;;
32505;SDS011;18955;51.224;8.482;2022-09-09T07:49:24;8.50;;;1.35;;
32505;SDS011;18955;51.224;8.482;2022-09-09T07:51:51;17.90;;;1.70;;
32505;SDS011;18955;51.224;8.482;2022-09-09T07:54:19;11.75;;;1.40;;
32505;SDS011;18955;51.224;8.482;2022-09-09T07:56:49;5.43;;;1.10;;
32505;SDS011;18955;51.224;8.482;2022-09-09T07:59:16;5.40;;;1.25;;
32505;SDS011;18955;51.224;8.482;2022-09-09T08:01:47;6.13;;;1.00;;
32505;SDS011;18955;51.224;8.482;2022-09-09T08:04:19;9.60;;;1.38;;
32505;SDS011;18955;51.224;8.482;2022-09-09T08:06:48;8.35;;;1.75;;
32505;SDS011;18955;51.224;8.482;2022-09-09T08:09:19;14.50;;;2.30;;
32505;SDS011;18955;51.224;8.482;2022-09-09T08:11:48;9.77;;;1.95;;
32505;SDS011;18955;51.224;8.482;2022-09-09T08:14:16;6.05;;;1.23;;
32505;SDS011;18955;51.224;8.482;2022-09-09T08:16:43;8.32;;;1.95;;
32505;SDS011;18955;51.224;8.482;2022-09-09T08:19:13;8.38;;;1.40;;
32505;SDS011;18955;51.224;8.482;2022-09-09T08:21:44;7.07;;;1.63;;
32505;SDS011;18955;51.224;8.482;2022-09-09T08:24:12;16.75;;;1.67;;
32505;SDS011;18955;51.224;8.482;2022-09-09T08:26:46;9.98;;;1.63;;
32505;SDS011;18955;51.224;8.482;2022-09-09T08:29:20;7.20;;;1.60;;
32505;SDS011;18955;51.224;8.482;2022-09-09T08:31:48;7.25;;;1.88;;
32505;SDS011;18955;51.224;8.482;2022-09-09T08:34:16;10.73;;;1.65;;
32505;SDS011;18955;51.224;8.482;2022-09-09T08:36:48;6.95;;;1.95;;
32505;SDS011;18955;51.224;8.482;2022-09-09T08:39:17;15.80;;;1.85;;
32505;SDS011;18955;51.224;8.482;2022-09-09T08:55:58;14.50;;;1.02;;
32505;SDS011;18955;51.224;8.482;2022-09-09T08:58:34;14.55;;;1.83;;
32505;SDS011;18955;51.224;8.482;2022-09-09T09:06:55;13.60;;;1.52;;
32505;SDS011;18955;51.224;8.482;2022-09-09T09:12:18;12.13;;;1.33;;
32505;SDS011;18955;51.224;8.482;2022-09-09T09:14:48;14.73;;;1.70;;
32505;SDS011;18955;51.224;8.482;2022-09-09T09:17:18;14.75;;;1.60;;
32505;SDS011;18955;51.224;8.482;2022-09-09T09:19:47;12.70;;;1.65;;
32505;SDS011;18955;51.224;8.482;2022-09-09T09:25:03;10.73;;;1.55;;
32505;SDS011;18955;51.224;8.482;2022-09-09T09:27:36;12.38;;;1.40;;
32505;SDS011;18955;51.224;8.482;2022-09-09T09:32:44;5.18;;;0.90;;
32505;SDS011;18955;51.224;8.482;2022-09-09T09:35:31;9.93;;;1.83;;
32505;SDS011;18955;51.224;8.482;2022-09-09T09:37:57;7.20;;;1.02;;
32505;SDS011;18955;51.224;8.482;2022-09-09T09:40:27;5.93;;;1.40;;
32505;SDS011;18955;51.224;8.482;2022-09-09T09:42:57;8.43;;;1.48;;
32505;SDS011;18955;51.224;8.482;2022-09-09T09:48:03;6.72;;;1.00;;
32505;SDS011;18955;51.224;8.482;2022-09-09T09:50:33;10.68;;;1.50;;
32505;SDS011;18955;51.224;8.482;2022-09-09T09:53:04;8.05;;;1.20;;
32505;SDS011;18955;51.224;8.482;2022-09-09T09:55:46;11.73;;;1.42;;
32505;SDS011;18955;51.224;8.482;2022-09-09T09:58:22;15.65;;;1.38;;
32505;SDS011;18955;51.224;8.482;2022-09-09T10:00:51;11.52;;;1.55;;
32505;SDS011;18955;51.224;8.482;2022-09-09T10:06:00;5.90;;;1.60;;
32505;SDS011;18955;51.224;8.482;2022-09-09T10:08:27;11.90;;;1.20;;
32505;SDS011;18955;51.224;8.482;2022-09-09T10:19:03;15.40;;;2.00;;
32505;SDS011;18955;51.224;8.482;2022-09-09T10:35:02;13.98;;;1.25;;
32505;SDS011;18955;51.224;8.482;2022-09-09T10:40:40;6.93;;;1.33;;
32505;SDS011;18955;51.224;8.482;2022-09-09T10:43:15;9.95;;;1.20;;
32505;SDS011;18955;51.224;8.482;2022-09-09T10:56:39;7.25;;;1.50;;
32505;SDS011;18955;51.224;8.482;2022-09-09T10:59:20;7.03;;;1.20;;
32505;SDS011;18955;51.224;8.482;2022-09-09T11:04:32;7.28;;;1.70;;
32505;SDS011;18955;51.224;8.482;2022-09-09T11:21:51;7.15;;;1.30;;
32505;SDS011;18955;51.224;8.482;2022-09-09T11:24:29;3.85;;;1.15;;
32505;SDS011;18955;51.224;8.482;2022-09-09T11:27:19;5.10;;;1.17;;
32505;SDS011;18955;51.224;8.482;2022-09-09T11:38:27;7.38;;;1.42;;
32505;SDS011;18955;51.224;8.482;2022-09-09T11:41:16;6.18;;;1.10;;
32505;SDS011;18955;51.224;8.482;2022-09-09T11:43:51;2.92;;;0.70;;
32505;SDS011;18955;51.224;8.482;2022-09-09T11:46:19;4.13;;;0.70;;
32505;SDS011;18955;51.224;8.482;2022-09-09T11:48:58;7.35;;;0.88;;
32505;SDS011;18955;51.224;8.482;2022-09-09T11:51:30;3.38;;;0.98;;
32505;SDS011;18955;51.224;8.482;2022-09-09T11:53:59;5.85;;;1.08;;
32505;SDS011;18955;51.224;8.482;2022-09-09T11:59:03;5.25;;;0.80;;
32505;SDS011;18955;51.224;8.482;2022-09-09T12:09:33;7.97;;;1.13;;
32505;SDS011;18955;51.224;8.482;2022-09-09T12:12:06;6.07;;;0.95;;
32505;SDS011;18955;51.224;8.482;2022-09-09T12:14:57;10.73;;;1.30;;
32505;SDS011;18955;51.224;8.482;2022-09-09T12:17:43;5.50;;;1.25;;
32505;SDS011;18955;51.224;8.482;2022-09-09T12:23:26;5.38;;;1.02;;
32505;SDS011;18955;51.224;8.482;2022-09-09T12:34:04;8.05;;;1.05;;
32505;SDS011;18955;51.224;8.482;2022-09-09T12:36:40;5.32;;;1.17;;
32505;SDS011;18955;51.224;8.482;2022-09-09T12:39:29;18.65;;;1.75;;
32505;SDS011;18955;51.224;8.482;2022-09-09T12:42:03;9.38;;;1.15;;
32505;SDS011;18955;51.224;8.482;2022-09-09T12:44:30;17.05;;;2.33;;
32505;SDS011;18955;51.224;8.482;2022-09-09T12:46:58;7.03;;;1.10;;
32505;SDS011;18955;51.224;8.482;2022-09-09T12:52:03;11.27;;;1.60;;
32505;SDS011;18955;51.224;8.482;2022-09-09T12:54:59;6.88;;;1.20;;
32505;SDS011;18955;51.224;8.482;2022-09-09T12:57:29;9.35;;;0.93;;
32505;SDS011;18955;51.224;8.482;2022-09-09T13:00:05;12.13;;;1.33;;
32505;SDS011;18955;51.224;8.482;2022-09-09T13:02:44;10.68;;;0.98;;
32505;SDS011;18955;51.224;8.482;2022-09-09T13:05:13;8.38;;;1.48;;
32505;SDS011;18955;51.224;8.482;2022-09-09T13:07:42;19.27;;;1.40;;
32505;SDS011;18955;51.224;8.482;2022-09-09T13:10:12;6.38;;;1.30;;
32505;SDS011;18955;51.224;8.482;2022-09-09T13:12:40;6.18;;;1.20;;
32505;SDS011;18955;51.224;8.482;2022-09-09T13:15:23;6.95;;;1.98;;
32505;SDS011;18955;51.224;8.482;2022-09-09T13:17:54;14.43;;;1.63;;
32505;SDS011;18955;51.224;8.482;2022-09-09T13:20:22;14.60;;;1.33;;
32505;SDS011;18955;51.224;8.482;2022-09-09T13:22:50;12.55;;;1.67;;
32505;SDS011;18955;51.224;8.482;2022-09-09T13:25:20;28.73;;;2.10;;
32505;SDS011;18955;51.224;8.482;2022-09-09T13:27:52;6.15;;;1.83;;
32505;SDS011;18955;51.224;8.482;2022-09-09T13:33:03;4.78;;;1.02;;
32505;SDS011;18955;51.224;8.482;2022-09-09T13:38:15;7.75;;;1.42;;
32505;SDS011;18955;51.224;8.482;2022-09-09T13:40:52;5.82;;;0.88;;
32505;SDS011;18955;51.224;8.482;2022-09-09T13:43:23;4.78;;;0.90;;
32505;SDS011;18955;51.224;8.482;2022-09-09T13:45:55;17.33;;;1.20;;
32505;SDS011;18955;51.224;8.482;2022-09-09T13:48:26;3.88;;;0.77;;
32505;SDS011;18955;51.224;8.482;2022-09-09T13:50:54;13.40;;;0.98;;
32505;SDS011;18955;51.224;8.482;2022-09-09T13:53:21;17.88;;;1.33;;
32505;SDS011;18955;51.224;8.482;2022-09-09T13:55:48;12.90;;;1.42;;
32505;SDS011;18955;51.224;8.482;2022-09-09T13:58:15;14.43;;;1.70;;
32505;SDS011;18955;51.224;8.482;2022-09-09T14:00:44;5.03;;;0.77;;
32505;SDS011;18955;51.224;8.482;2022-09-09T14:03:12;11.50;;;1.38;;
32505;SDS011;18955;51.224;8.482;2022-09-09T14:05:39;6.55;;;1.42;;
32505;SDS011;18955;51.224;8.482;2022-09-09T14:08:06;13.50;;;1.83;;
32505;SDS011;18955;51.224;8.482;2022-09-09T14:10:33;8.55;;;0.93;;
32505;SDS011;18955;51.224;8.482;2022-09-09T14:13:03;5.53;;;0.98;;
32505;SDS011;18955;51.224;8.482;2022-09-09T14:15:29;4.82;;;0.95;;
32505;SDS011;18955;51.224;8.482;2022-09-09T14:17:55;9.15;;;0.70;;
32505;SDS011;18955;51.224;8.482;2022-09-09T14:20:21;9.55;;;0.90;;
32505;SDS011;18955;51.224;8.482;2022-09-09T14:22:47;7.68;;;1.15;;
32505;SDS011;18955;51.224;8.482;2022-09-09T14:25:14;6.57;;;0.70;;
32505;SDS011;18955;51.224;8.482;2022-09-09T14:27:40;3.70;;;0.90;;
32505;SDS011;18955;51.224;8.482;2022-09-09T14:30:08;3.97;;;1.20;;
32505;SDS011;18955;51.224;8.482;2022-09-09T14:32:35;6.22;;;1.08;;
32505;SDS011;18955;51.224;8.482;2022-09-09T14:35:01;3.03;;;0.70;;
32505;SDS011;18955;51.224;8.482;2022-09-09T14:37:28;6.13;;;1.08;;
32505;SDS011;18955;51.224;8.482;2022-09-09T14:39:57;8.55;;;0.95;;
32505;SDS011;18955;51.224;8.482;2022-09-09T14:44:49;4.05;;;0.85;;
32505;SDS011;18955;51.224;8.482;2022-09-09T14:47:16;3.65;;;1.02;;
32505;SDS011;18955;51.224;8.482;2022-09-09T14:49:42;2.85;;;0.73;;
32505;SDS011;18955;51.224;8.482;2022-09-09T14:52:08;5.05;;;0.90;;
32505;SDS011;18955;51.224;8.482;2022-09-09T14:54:35;9.85;;;0.80;;
32505;SDS011;18955;51.224;8.482;2022-09-09T14:57:01;3.88;;;0.70;;
32505;SDS011;18955;51.224;8.482;2022-09-09T14:59:27;4.32;;;1.38;;
32505;SDS011;18955;51.224;8.482;2022-09-09T15:01:54;7.13;;;0.70;;
32505;SDS011;18955;51.224;8.482;2022-09-09T15:04:20;10.35;;;0.75;;
32505;SDS011;18955;51.224;8.482;2022-09-09T15:06:47;7.88;;;0.75;;
32505;SDS011;18955;51.224;8.482;2022-09-09T15:09:15;17.50;;;1.20;;
32505;SDS011;18955;51.224;8.482;2022-09-09T15:11:41;10.93;;;0.45;;
32505;SDS011;18955;51.224;8.482;2022-09-09T15:14:09;9.45;;;0.90;;
32505;SDS011;18955;51.224;8.482;2022-09-09T15:16:35;4.65;;;0.65;;
32505;SDS011;18955;51.224;8.482;2022-09-09T15:19:02;4.10;;;0.40;;
32505;SDS011;18955;51.224;8.482;2022-09-09T15:21:30;5.90;;;0.60;;
32505;SDS011;18955;51.224;8.482;2022-09-09T15:23:57;11.13;;;0.90;;
32505;SDS011;18955;51.224;8.482;2022-09-09T15:26:25;11.40;;;1.25;;
32505;SDS011;18955;51.224;8.482;2022-09-09T15:28:51;9.23;;;1.15;;
32505;SDS011;18955;51.224;8.482;2022-09-09T15:31:22;3.38;;;0.80;;
32505;SDS011;18955;51.224;8.482;2022-09-09T15:33:50;6.05;;;0.90;;
32505;SDS011;18955;51.224;8.482;2022-09-09T15:36:21;3.95;;;0.55;;
32505;SDS011;18955;51.224;8.482;2022-09-09T15:38:49;3.63;;;0.60;;
32505;SDS011;18955;51.224;8.482;2022-09-09T15:41:17;2.63;;;0.38;;
32505;SDS011;18955;51.224;8.482;2022-09-09T15:43:44;4.53;;;0.63;;
32505;SDS011;18955;51.224;8.482;2022-09-09T15:49:11;6.78;;;1.00;;
32505;SDS011;18955;51.224;8.482;2022-09-09T15:51:46;3.08;;;0.70;;
32505;SDS011;18955;51.224;8.482;2022-09-09T15:54:20;4.40;;;0.68;;
32505;SDS011;18955;51.224;8.482;2022-09-09T15:56:53;4.65;;;0.98;;
32505;SDS011;18955;51.224;8.482;2022-09-09T15:59:22;3.03;;;0.40;;
32505;SDS011;18955;51.224;8.482;2022-09-09T16:01:48;4.22;;;0.57;;
32505;SDS011;18955;51.224;8.482;2022-09-09T16:04:18;7.47;;;1.08;;
32505;SDS011;18955;51.224;8.482;2022-09-09T16:07:01;5.53;;;1.27;;
32505;SDS011;18955;51.224;8.482;2022-09-09T16:09:30;5.10;;;0.80;;
32505;SDS011;18955;51.224;8.482;2022-09-09T16:11:58;7.15;;;0.70;;
32505;SDS011;18955;51.224;8.482;2022-09-09T16:14:26;12.73;;;0.90;;
32505;SDS011;18955;51.224;8.482;2022-09-09T16:16:53;12.75;;;0.95;;
32505;SDS011;18955;51.224;8.482;2022-09-09T16:19:19;18.52;;;1.48;;
32505;SDS011;18955;51.224;8.482;2022-09-09T16:21:47;4.18;;;0.60;;
32505;SDS011;18955;51.224;8.482;2022-09-09T16:24:16;6.20;;;0.70;;
32505;SDS011;18955;51.224;8.482;2022-09-09T16:26:44;2.35;;;0.50;;
32505;SDS011;18955;51.224;8.482;2022-09-09T16:29:16;1.67;;;0.40;;
32505;SDS011;18955;51.224;8.482;2022-09-09T16:31:43;2.60;;;0.47;;
32505;SDS011;18955;51.224;8.482;2022-09-09T16:34:10;4.03;;;0.50;;
32505;SDS011;18955;51.224;8.482;2022-09-09T16:36:38;3.15;;;0.60;;
32505;SDS011;18955;51.224;8.482;2022-09-09T16:39:06;6.50;;;0.60;;
32505;SDS011;18955;51.224;8.482;2022-09-09T16:41:40;3.00;;;0.50;;
32505;SDS011;18955;51.224;8.482;2022-09-09T16:44:09;4.93;;;0.50;;
32505;SDS011;18955;51.224;8.482;2022-09-09T16:46:40;5.13;;;0.80;;
32505;SDS011;18955;51.224;8.482;2022-09-09T16:49:09;4.43;;;0.90;;
32505;SDS011;18955;51.224;8.482;2022-09-09T16:51:40;4.93;;;0.70;;
32505;SDS011;18955;51.224;8.482;2022-09-09T16:54:08;6.47;;;0.73;;
32505;SDS011;18955;51.224;8.482;2022-09-09T16:56:37;2.97;;;0.43;;
32505;SDS011;18955;51.224;8.482;2022-09-09T16:59:15;5.15;;;0.60;;
32505;SDS011;18955;51.224;8.482;2022-09-09T17:01:46;4.72;;;0.57;;
32505;SDS011;18955;51.224;8.482;2022-09-09T17:04:15;3.78;;;0.60;;
32505;SDS011;18955;51.224;8.482;2022-09-09T17:06:46;5.95;;;0.77;;
32505;SDS011;18955;51.224;8.482;2022-09-09T17:09:14;17.17;;;1.73;;
32505;SDS011;18955;51.224;8.482;2022-09-09T17:11:42;10.13;;;1.80;;
32505;SDS011;18955;51.224;8.482;2022-09-09T17:14:11;7.47;;;0.85;;
32505;SDS011;18955;51.224;8.482;2022-09-09T17:16:40;5.93;;;0.80;;
32505;SDS011;18955;51.224;8.482;2022-09-09T17:19:07;5.22;;;0.88;;
32505;SDS011;18955;51.224;8.482;2022-09-09T17:21:34;6.55;;;0.80;;
32505;SDS011;18955;51.224;8.482;2022-09-09T17:24:02;3.38;;;0.68;;
32505;SDS011;18955;51.224;8.482;2022-09-09T17:26:29;3.95;;;0.63;;
32505;SDS011;18955;51.224;8.482;2022-09-09T17:28:57;3.50;;;1.15;;
32505;SDS011;18955;51.224;8.482;2022-09-09T17:31:25;2.13;;;0.70;;
32505;SDS011;18955;51.224;8.482;2022-09-09T17:33:54;4.47;;;0.52;;
32505;SDS011;18955;51.224;8.482;2022-09-09T17:36:23;3.67;;;0.60;;
32505;SDS011;18955;51.224;8.482;2022-09-09T17:38:52;2.28;;;0.50;;
32505;SDS011;18955;51.224;8.482;2022-09-09T17:41:21;2.53;;;0.60;;
32505;SDS011;18955;51.224;8.482;2022-09-09T17:43:49;2.28;;;0.40;;
32505;SDS011;18955;51.224;8.482;2022-09-09T17:46:17;1.20;;;0.43;;
32505;SDS011;18955;51.224;8.482;2022-09-09T17:48:48;1.33;;;0.60;;
32505;SDS011;18955;51.224;8.482;2022-09-09T17:51:20;2.83;;;0.60;;
32505;SDS011;18955;51.224;8.482;2022-09-09T17:53:54;0.80;;;0.40;;
32505;SDS011;18955;51.224;8.482;2022-09-09T17:56:24;1.33;;;0.20;;
32505;SDS011;18955;51.224;8.482;2022-09-09T17:58:53;1.23;;;0.43;;
32505;SDS011;18955;51.224;8.482;2022-09-09T18:01:21;3.78;;;0.68;;